createdAt,value
2022-12-15T00:00:04.077Z,18.37
2022-12-15T00:02:49.928Z,18.17
2022-12-15T00:05:35.812Z,16.00
2022-12-15T00:08:29.278Z,15.10
2022-12-15T00:11:15.429Z,16.30
2022-12-15T00:14:02.749Z,16.47
2022-12-15T00:16:48.204Z,18.60
2022-12-15T00:19:33.575Z,17.77
2022-12-15T00:22:19.248Z,15.20
2022-12-15T00:27:50.223Z,17.70
2022-12-15T00:30:37.325Z,17.77
2022-12-15T00:33:28.414Z,14.60
2022-12-15T00:36:16.686Z,17.17
2022-12-15T00:38:45.220Z,13.13
2022-12-15T00:41:14.461Z,15.40
2022-12-15T00:43:42.752Z,18.70
2022-12-15T00:46:30.094Z,18.83
2022-12-15T00:48:58.731Z,15.70
2022-12-15T00:51:45.152Z,16.47
2022-12-15T00:54:31.073Z,16.73
2022-12-15T00:57:16.804Z,14.60
2022-12-15T01:00:02.496Z,15.70
2022-12-15T01:02:49.562Z,16.33
2022-12-15T01:05:35.332Z,17.87
2022-12-15T01:08:21.169Z,17.17
2022-12-15T01:11:06.816Z,20.20
2022-12-15T01:13:52.523Z,17.40
2022-12-15T01:16:38.320Z,18.17
2022-12-15T01:19:27.298Z,18.97
2022-12-15T01:21:55.534Z,20.47
2022-12-15T01:24:24.501Z,16.20
2022-12-15T01:26:52.759Z,16.93
2022-12-15T01:29:20.994Z,20.63
2022-12-15T01:31:49.956Z,15.77
2022-12-15T01:34:22.819Z,16.43
2022-12-15T01:36:51.239Z,18.00
2022-12-15T01:39:19.521Z,15.33
2022-12-15T01:41:46.822Z,19.03
2022-12-15T01:44:18.059Z,19.77
2022-12-15T01:46:46.656Z,18.43
2022-12-15T01:49:19.159Z,14.87
2022-12-15T01:51:52.673Z,17.00
2022-12-15T01:54:24.444Z,16.20
2022-12-15T01:56:56.798Z,15.87
2022-12-15T01:59:30.336Z,18.23
2022-12-15T02:01:58.905Z,16.47
2022-12-15T02:04:27.443Z,19.17
2022-12-15T02:06:57.170Z,18.57
2022-12-15T02:09:27.509Z,16.40
2022-12-15T02:12:02.310Z,15.27
2022-12-15T02:14:48.415Z,17.33
2022-12-15T02:17:29.505Z,18.30
2022-12-15T02:20:30.163Z,16.67
2022-12-15T02:23:26.034Z,15.77
2022-12-15T02:26:17.760Z,13.53
2022-12-15T02:28:57.932Z,16.60
2022-12-15T02:31:52.101Z,15.57
2022-12-15T02:34:28.153Z,18.27
2022-12-15T02:37:00.860Z,13.93
2022-12-15T02:39:30.178Z,14.90
2022-12-15T02:41:58.475Z,15.27
2022-12-15T02:44:30.910Z,15.93
2022-12-15T02:47:24.803Z,16.63
2022-12-15T02:50:11.681Z,17.80
2022-12-15T02:53:01.357Z,13.20
2022-12-15T02:55:37.846Z,16.30
2022-12-15T02:58:13.713Z,15.53
2022-12-15T03:00:45.553Z,14.93
2022-12-15T03:03:20.257Z,17.90
2022-12-15T03:05:49.008Z,13.50
2022-12-15T03:08:17.366Z,14.43
2022-12-15T03:10:45.775Z,16.77
2022-12-15T03:13:15.085Z,13.53
2022-12-15T03:15:43.353Z,15.97
2022-12-15T03:18:12.067Z,13.00
2022-12-15T03:20:41.733Z,13.80
2022-12-15T03:23:10.054Z,15.30
2022-12-15T03:25:38.337Z,15.43
2022-12-15T03:28:06.796Z,16.10
2022-12-15T03:30:35.106Z,16.53
2022-12-15T03:33:03.369Z,14.90
2022-12-15T03:35:33.843Z,14.20
2022-12-15T03:38:03.573Z,10.90
2022-12-15T03:40:31.870Z,15.10
2022-12-15T03:43:00.186Z,17.47
2022-12-15T03:45:30.025Z,16.53
2022-12-15T03:47:59.785Z,15.10
2022-12-15T03:50:30.386Z,13.33
2022-12-15T03:53:00.421Z,12.00
2022-12-15T03:55:30.401Z,15.37
2022-12-15T03:57:59.230Z,12.23
2022-12-15T04:00:28.447Z,18.23
2022-12-15T04:02:57.094Z,15.13
2022-12-15T04:05:27.699Z,14.47
2022-12-15T04:07:56.707Z,14.13
2022-12-15T04:10:31.730Z,16.90
2022-12-15T04:13:05.782Z,14.00
2022-12-15T04:15:34.616Z,14.90
2022-12-15T04:18:03.474Z,14.20
2022-12-15T04:20:33.127Z,16.93
2022-12-15T04:23:01.763Z,13.37
2022-12-15T04:25:47.416Z,17.10
2022-12-15T04:28:34.727Z,14.47
2022-12-15T04:31:25.618Z,19.73
2022-12-15T04:34:13.714Z,14.60
2022-12-15T04:37:01.423Z,15.67
2022-12-15T04:39:47.135Z,14.90
2022-12-15T04:42:33.425Z,15.40
2022-12-15T04:45:22.812Z,14.73
2022-12-15T04:48:08.364Z,14.07
2022-12-15T04:50:54.053Z,14.53
2022-12-15T04:53:40.403Z,14.47
2022-12-15T04:56:30.432Z,15.10
2022-12-15T04:59:16.438Z,17.53
2022-12-15T05:02:03.980Z,12.87
2022-12-15T05:04:50.254Z,13.00
2022-12-15T05:07:35.750Z,12.87
2022-12-15T05:10:22.043Z,16.60
2022-12-15T05:13:07.823Z,14.67
2022-12-15T05:15:53.614Z,16.48
2022-12-15T05:18:41.019Z,16.93
2022-12-15T05:21:27.331Z,15.23
2022-12-15T05:24:12.967Z,14.23
2022-12-15T05:26:58.284Z,14.23
2022-12-15T05:29:43.873Z,18.87
2022-12-15T05:32:13.332Z,12.93
2022-12-15T05:34:43.025Z,12.50
2022-12-15T05:37:11.288Z,14.47
2022-12-15T05:39:39.549Z,16.80
2022-12-15T05:42:08.106Z,12.73
2022-12-15T05:44:36.367Z,15.13
2022-12-15T05:47:04.964Z,14.10
2022-12-15T05:49:33.504Z,12.57
2022-12-15T05:52:03.272Z,16.43
2022-12-15T05:54:31.689Z,11.83
2022-12-15T05:56:59.978Z,13.50
2022-12-15T05:59:28.268Z,14.27
2022-12-15T06:01:56.589Z,12.67
2022-12-15T06:04:25.099Z,13.17
2022-12-15T06:06:53.442Z,12.57
2022-12-15T06:09:23.082Z,12.53
2022-12-15T06:11:51.356Z,11.60
2022-12-15T06:14:19.728Z,9.90
2022-12-15T06:16:50.445Z,11.93
2022-12-15T06:19:19.873Z,13.13
2022-12-15T06:21:48.139Z,10.80
2022-12-15T06:24:16.609Z,15.27
2022-12-15T06:26:46.296Z,13.13
2022-12-15T06:29:18.416Z,12.37
2022-12-15T06:31:46.915Z,10.93
2022-12-15T06:34:17.706Z,11.37
2022-12-15T06:36:46.365Z,14.03
2022-12-15T06:39:16.529Z,14.77
2022-12-15T06:41:46.668Z,13.00
2022-12-15T06:44:16.215Z,15.53
2022-12-15T06:46:46.234Z,16.93
2022-12-15T06:49:15.070Z,15.40
2022-12-15T06:51:45.213Z,16.80
2022-12-15T06:54:13.693Z,12.60
2022-12-15T06:56:42.519Z,12.87
2022-12-15T06:59:13.632Z,13.87
2022-12-15T07:01:43.314Z,12.23
2022-12-15T07:04:12.043Z,12.67
2022-12-15T07:06:40.880Z,11.70
2022-12-15T07:09:12.873Z,12.52
2022-12-15T07:11:41.557Z,12.00
2022-12-15T07:14:12.366Z,11.30
2022-12-15T07:16:42.400Z,10.77
2022-12-15T07:19:13.544Z,10.07
2022-12-15T07:21:42.525Z,10.77
2022-12-15T07:24:12.651Z,11.00
2022-12-15T07:26:41.293Z,11.63
2022-12-15T07:29:09.650Z,9.83
2022-12-15T07:31:39.677Z,10.00
2022-12-15T07:34:07.999Z,9.10
2022-12-15T07:36:36.243Z,9.57
2022-12-15T07:39:06.200Z,9.50
2022-12-15T07:41:35.468Z,9.87
2022-12-15T07:44:03.787Z,10.93
2022-12-15T07:46:32.169Z,9.57
2022-12-15T07:49:01.880Z,11.97
2022-12-15T07:51:30.175Z,11.20
2022-12-15T07:53:58.833Z,11.93
2022-12-15T07:56:27.141Z,13.43
2022-12-15T07:58:55.383Z,9.77
2022-12-15T08:01:32.047Z,9.83
2022-12-15T08:04:08.412Z,10.83
2022-12-15T08:06:37.027Z,10.63
2022-12-15T08:09:05.386Z,8.03
2022-12-15T08:11:35.673Z,10.47
2022-12-15T08:14:06.840Z,12.05
2022-12-15T08:16:37.556Z,11.77
2022-12-15T08:19:08.625Z,13.73
2022-12-15T08:21:36.858Z,13.63
2022-12-15T08:24:05.614Z,14.77
2022-12-15T08:26:33.900Z,10.07
2022-12-15T08:32:19.433Z,11.70
2022-12-15T08:34:49.790Z,9.67
2022-12-15T08:37:18.049Z,10.60
2022-12-15T08:39:46.796Z,9.97
2022-12-15T08:42:15.108Z,8.20
2022-12-15T08:44:43.401Z,9.67
2022-12-15T08:47:11.639Z,8.93
2022-12-15T08:49:40.157Z,9.13
2022-12-15T08:52:09.973Z,9.30
2022-12-15T08:54:38.475Z,10.07
2022-12-15T08:57:06.998Z,9.93
2022-12-15T08:59:35.428Z,10.20
2022-12-15T09:02:03.932Z,12.57
2022-12-15T09:04:32.423Z,10.47
2022-12-15T09:07:00.864Z,10.13
2022-12-15T09:09:30.594Z,9.77
2022-12-15T09:11:58.840Z,9.60
2022-12-15T09:14:29.386Z,10.50
2022-12-15T09:16:58.170Z,10.03
2022-12-15T09:19:26.539Z,11.83
2022-12-15T09:21:55.716Z,9.40
2022-12-15T09:24:33.865Z,12.87
2022-12-15T09:27:04.569Z,8.13
2022-12-15T09:29:35.704Z,7.57
2022-12-15T09:32:08.967Z,7.07
2022-12-15T09:34:40.494Z,8.83
2022-12-15T09:37:08.768Z,6.63
2022-12-15T09:39:37.939Z,8.30
2022-12-15T09:42:07.611Z,7.30
2022-12-15T09:44:35.946Z,8.50
2022-12-15T09:47:16.043Z,7.17
2022-12-15T09:49:53.523Z,9.20
2022-12-15T09:52:25.041Z,8.63
2022-12-15T09:54:53.355Z,7.30
2022-12-15T09:57:32.141Z,7.93
2022-12-15T10:00:17.630Z,8.90
2022-12-15T10:03:17.364Z,11.93
2022-12-15T10:06:25.960Z,12.97
2022-12-15T10:08:57.678Z,7.87
2022-12-15T10:11:42.278Z,7.20
2022-12-15T10:14:22.691Z,5.95
2022-12-15T10:17:00.894Z,7.17
2022-12-15T10:19:37.914Z,6.30
2022-12-15T10:22:06.418Z,7.70
2022-12-15T10:27:37.814Z,8.50
2022-12-15T10:30:12.005Z,6.50
2022-12-15T10:32:50.969Z,8.20
2022-12-15T10:35:22.814Z,7.47
2022-12-15T10:37:51.216Z,7.43
2022-12-15T10:40:41.094Z,11.13
2022-12-15T10:43:15.137Z,8.67
2022-12-15T10:45:45.282Z,7.60
2022-12-15T10:48:21.219Z,11.50
2022-12-15T10:50:50.212Z,7.60
2022-12-15T10:53:35.819Z,8.40
2022-12-15T10:56:09.174Z,8.20
2022-12-15T10:58:50.032Z,7.63
2022-12-15T11:01:21.951Z,8.03
2022-12-15T11:03:53.006Z,9.57
2022-12-15T11:06:23.881Z,10.10
2022-12-15T11:08:54.528Z,11.97
2022-12-15T11:11:50.352Z,9.37
2022-12-15T11:14:20.964Z,8.13
2022-12-15T11:16:56.255Z,9.10
2022-12-15T11:19:36.214Z,10.30
2022-12-15T11:22:11.294Z,8.93
2022-12-15T11:24:45.042Z,7.27
2022-12-15T11:27:26.226Z,9.00
2022-12-15T11:30:02.874Z,10.43
2022-12-15T11:32:36.506Z,7.67
2022-12-15T11:35:05.257Z,7.03
2022-12-15T11:37:42.029Z,9.77
2022-12-15T11:40:39.932Z,8.33
2022-12-15T11:43:28.310Z,7.70
2022-12-15T11:46:08.065Z,9.27
2022-12-15T11:48:46.243Z,10.97
2022-12-15T11:51:24.676Z,11.57
2022-12-15T11:54:09.017Z,9.60
2022-12-15T11:56:40.886Z,11.67
2022-12-15T11:59:42.751Z,9.17
2022-12-15T12:02:55.717Z,10.13
2022-12-15T12:06:03.051Z,9.77
2022-12-15T12:08:45.091Z,11.33
2022-12-15T12:11:16.866Z,8.53
2022-12-15T12:13:56.005Z,11.27
2022-12-15T12:16:33.536Z,10.37
2022-12-15T12:19:06.020Z,14.87
2022-12-15T12:21:40.798Z,13.90
2022-12-15T12:24:17.739Z,11.40
2022-12-15T12:26:50.941Z,10.07
2022-12-15T12:29:24.440Z,10.20
2022-12-15T12:37:59.446Z,11.83
2022-12-15T12:40:36.788Z,12.10
2022-12-15T12:43:11.895Z,10.87
2022-12-15T12:45:50.988Z,10.90
2022-12-15T12:48:26.671Z,9.57
2022-12-15T12:51:12.325Z,10.10
2022-12-15T12:53:42.018Z,9.43
2022-12-15T12:56:36.006Z,14.73
2022-12-15T12:59:08.868Z,12.40
2022-12-15T13:01:39.062Z,10.53
2022-12-15T13:04:10.753Z,11.53
2022-12-15T13:06:58.382Z,10.90
2022-12-15T13:09:40.576Z,8.93
2022-12-15T13:12:53.967Z,12.33
2022-12-15T13:15:43.049Z,12.38
2022-12-15T13:18:18.635Z,8.37
2022-12-15T13:20:50.544Z,10.80
2022-12-15T13:23:44.081Z,10.67
2022-12-15T13:26:20.880Z,10.97
2022-12-15T13:28:53.592Z,12.20
2022-12-15T13:31:33.479Z,14.47
2022-12-15T13:34:21.198Z,11.60
2022-12-15T13:36:57.252Z,7.93
2022-12-15T13:39:56.429Z,9.47
2022-12-15T13:42:51.227Z,16.77
2022-12-15T13:45:50.252Z,11.50
2022-12-15T13:48:31.584Z,10.17
2022-12-15T13:51:06.953Z,12.57
2022-12-15T13:53:41.813Z,12.23
2022-12-15T13:56:47.153Z,10.57
2022-12-15T13:59:28.222Z,10.97
2022-12-15T14:01:56.878Z,11.23
2022-12-15T14:04:25.310Z,14.40
2022-12-15T14:06:56.565Z,15.23
2022-12-15T14:09:29.109Z,15.88
2022-12-15T14:12:00.377Z,15.43
2022-12-15T14:14:32.822Z,18.43
2022-12-15T14:17:03.270Z,17.67
2022-12-15T14:19:40.688Z,12.43
2022-12-15T14:22:29.435Z,14.40
2022-12-15T14:25:03.839Z,16.10
2022-12-15T14:27:38.312Z,13.23
2022-12-15T14:30:22.463Z,14.90
2022-12-15T14:32:53.867Z,13.90
2022-12-15T14:35:28.195Z,16.57
2022-12-15T14:38:15.122Z,17.80
2022-12-15T14:40:44.987Z,16.83
2022-12-15T14:43:19.870Z,15.93
2022-12-15T14:45:55.186Z,16.53
2022-12-15T14:48:40.925Z,15.13
2022-12-15T14:51:12.215Z,14.40
2022-12-15T14:53:42.695Z,14.60
2022-12-15T14:56:16.564Z,13.50
2022-12-15T14:58:47.039Z,17.00
2022-12-15T15:01:26.471Z,16.73
2022-12-15T15:03:04.934Z,13.20
2022-12-15T15:03:12.825Z,13.43
2022-12-15T15:03:59.340Z,13.37
2022-12-15T15:06:33.088Z,15.20
2022-12-15T15:09:15.582Z,16.33
2022-12-15T15:11:44.716Z,12.07
2022-12-15T15:14:16.623Z,15.73
2022-12-15T15:16:47.055Z,14.70
2022-12-15T15:19:22.538Z,16.20
2022-12-15T15:21:50.868Z,16.85
2022-12-15T15:24:35.323Z,14.17
2022-12-15T15:27:26.612Z,18.00
2022-12-15T15:30:13.358Z,19.10
2022-12-15T15:32:56.577Z,16.03
2022-12-15T15:35:32.105Z,17.90
2022-12-15T15:38:05.893Z,16.33
2022-12-15T15:40:34.164Z,14.03
2022-12-15T15:43:02.465Z,15.53
2022-12-15T15:45:31.208Z,15.37
2022-12-15T15:48:00.933Z,18.23
2022-12-15T15:50:30.952Z,15.53
2022-12-15T15:52:59.671Z,18.67
2022-12-15T15:55:37.756Z,18.00
2022-12-15T15:58:12.373Z,20.10
2022-12-15T16:00:41.351Z,19.98
2022-12-15T16:03:11.344Z,19.77
2022-12-15T16:05:40.901Z,17.90
2022-12-15T16:08:14.295Z,17.43
2022-12-15T16:10:45.858Z,19.70
2022-12-15T16:13:16.700Z,17.53
2022-12-15T16:15:45.380Z,18.70
2022-12-15T16:18:15.614Z,19.77
2022-12-15T16:20:45.250Z,22.57
2022-12-15T16:23:17.074Z,21.43
2022-12-15T16:25:50.859Z,21.97
2022-12-15T16:28:21.567Z,22.57
2022-12-15T16:30:50.751Z,20.83
2022-12-15T16:33:20.874Z,24.17
2022-12-15T16:35:51.131Z,23.60
2022-12-15T16:38:25.504Z,19.33
2022-12-15T16:40:55.246Z,22.58
2022-12-15T16:43:28.946Z,19.93
2022-12-15T16:45:58.524Z,19.83
2022-12-15T16:48:28.891Z,22.50
2022-12-15T16:50:59.327Z,23.70
2022-12-15T16:53:30.711Z,24.77
2022-12-15T16:56:00.950Z,20.77
2022-12-15T16:58:31.575Z,24.23
2022-12-15T17:01:00.284Z,24.47
2022-12-15T17:03:30.149Z,21.80
2022-12-15T17:06:02.051Z,25.40
2022-12-15T17:08:36.443Z,24.00
2022-12-15T17:11:05.221Z,21.10
2022-12-15T17:13:40.638Z,24.63
2022-12-15T17:16:15.015Z,22.07
2022-12-15T17:18:44.991Z,25.55
2022-12-15T17:21:17.044Z,19.07
2022-12-15T17:23:46.871Z,21.60
2022-12-15T17:26:27.948Z,24.23
2022-12-15T17:28:59.812Z,26.17
2022-12-15T17:31:36.379Z,27.97
2022-12-15T17:34:27.820Z,23.20
2022-12-15T17:36:56.501Z,23.40
2022-12-15T17:39:24.941Z,20.93
2022-12-15T17:42:02.668Z,24.83
2022-12-15T17:44:38.259Z,25.10
2022-12-15T17:47:09.369Z,25.63
2022-12-15T17:49:39.441Z,26.13
2022-12-15T17:52:21.193Z,26.30
2022-12-15T17:54:49.581Z,23.80
2022-12-15T17:57:17.984Z,24.60
2022-12-15T17:59:46.308Z,25.93
2022-12-15T18:02:15.265Z,27.30
2022-12-15T18:04:46.033Z,24.63
2022-12-15T18:07:19.557Z,27.80
2022-12-15T18:09:47.980Z,27.40
2022-12-15T18:12:20.779Z,27.97
2022-12-15T18:14:49.313Z,25.57
2022-12-15T18:17:17.654Z,28.43
2022-12-15T18:19:47.406Z,25.63
2022-12-15T18:22:20.407Z,36.20
2022-12-15T18:24:48.895Z,30.20
2022-12-15T18:27:23.469Z,29.37
2022-12-15T18:29:52.441Z,34.93
2022-12-15T18:32:22.150Z,31.17
2022-12-15T18:34:52.369Z,32.80
2022-12-15T18:37:23.709Z,33.03
2022-12-15T18:39:52.034Z,33.93
2022-12-15T18:42:23.017Z,38.70
2022-12-15T18:44:53.373Z,32.30
2022-12-15T18:47:23.868Z,32.47
2022-12-15T18:49:53.590Z,39.38
2022-12-15T18:52:24.156Z,36.83
2022-12-15T18:54:54.256Z,30.47
2022-12-15T18:57:28.488Z,36.37
2022-12-15T18:59:59.971Z,36.37
2022-12-15T19:02:28.488Z,37.47
2022-12-15T19:04:58.253Z,43.57
2022-12-15T19:07:26.634Z,35.00
2022-12-15T19:09:55.467Z,28.17
2022-12-15T19:12:23.790Z,33.77
2022-12-15T19:14:54.969Z,31.00
2022-12-15T19:17:42.647Z,34.13
2022-12-15T19:20:35.754Z,33.67
2022-12-15T19:23:04.419Z,27.83
2022-12-15T19:25:33.415Z,32.73
2022-12-15T19:28:02.503Z,28.83
2022-12-15T19:30:40.314Z,34.53
2022-12-15T19:33:10.649Z,32.73
2022-12-15T19:35:42.433Z,34.97
2022-12-15T19:38:24.487Z,37.67
2022-12-15T19:40:54.571Z,36.17
2022-12-15T19:43:23.626Z,34.60
2022-12-15T19:45:53.120Z,31.53
2022-12-15T19:48:23.758Z,35.67
2022-12-15T19:50:54.843Z,36.10
2022-12-15T19:53:26.942Z,31.10
2022-12-15T19:55:58.445Z,38.20
2022-12-15T19:58:29.957Z,32.63
2022-12-15T20:01:00.567Z,36.77
2022-12-15T20:03:30.890Z,36.03
2022-12-15T20:06:02.794Z,36.53
2022-12-15T20:08:35.546Z,38.37
2022-12-15T20:11:04.134Z,41.27
2022-12-15T20:13:33.070Z,34.07
2022-12-15T20:16:01.816Z,37.13
2022-12-15T20:18:30.658Z,33.30
2022-12-15T20:21:01.431Z,36.47
2022-12-15T20:23:31.970Z,39.60
2022-12-15T20:26:01.150Z,39.20
2022-12-15T20:28:31.108Z,41.50
2022-12-15T20:30:59.975Z,38.33
2022-12-15T20:33:28.686Z,47.27
2022-12-15T20:35:57.128Z,31.90
2022-12-15T20:38:30.004Z,37.00
2022-12-15T20:40:58.923Z,38.07
2022-12-15T20:43:31.195Z,38.33
2022-12-15T20:46:04.166Z,35.33
2022-12-15T20:48:34.911Z,33.03
2022-12-15T20:51:08.813Z,31.43
2022-12-15T20:53:39.954Z,30.70
2022-12-15T20:56:08.695Z,34.23
2022-12-15T20:58:39.674Z,31.37
2022-12-15T21:01:25.782Z,30.13
2022-12-15T21:03:56.770Z,25.30
2022-12-15T21:06:26.629Z,30.47
2022-12-15T21:08:56.883Z,34.13
2022-12-15T21:11:27.453Z,33.53
2022-12-15T21:14:03.756Z,41.60
2022-12-15T21:16:33.528Z,41.17
2022-12-15T21:19:19.784Z,33.60
2022-12-15T21:21:51.912Z,34.47
2022-12-15T21:24:24.667Z,37.40
2022-12-15T21:26:53.797Z,30.90
2022-12-15T21:29:25.266Z,31.50
2022-12-15T21:31:53.677Z,33.20
2022-12-15T21:34:22.067Z,41.37
2022-12-15T21:36:55.065Z,32.97
2022-12-15T21:39:29.638Z,35.47
2022-12-15T21:42:00.887Z,34.67
2022-12-15T21:44:29.168Z,37.10
2022-12-15T21:46:57.401Z,36.63
2022-12-15T21:49:25.585Z,48.63
2022-12-15T21:51:55.723Z,38.83
2022-12-15T21:54:31.187Z,35.30
2022-12-15T21:57:00.358Z,37.77
2022-12-15T21:59:31.002Z,38.50
2022-12-15T22:02:00.692Z,36.23
2022-12-15T22:04:31.611Z,40.57
2022-12-15T22:06:59.976Z,42.47
2022-12-15T22:09:29.680Z,38.93
2022-12-15T22:11:58.260Z,45.73
2022-12-15T22:14:28.807Z,34.07
2022-12-15T22:16:57.469Z,31.03
2022-12-15T22:19:25.805Z,39.87
2022-12-15T22:21:54.219Z,37.30
2022-12-15T22:24:23.341Z,34.83
2022-12-15T22:26:53.012Z,38.83
2022-12-15T22:29:23.699Z,38.00
2022-12-15T22:31:52.473Z,40.00
2022-12-15T22:34:24.973Z,43.57
2022-12-15T22:36:53.529Z,39.70
2022-12-15T22:39:23.561Z,42.90
2022-12-15T22:41:53.688Z,37.10
2022-12-15T22:44:26.083Z,40.30
2022-12-15T22:46:57.026Z,39.77
2022-12-15T22:49:30.111Z,35.83
2022-12-15T22:51:58.501Z,35.30
2022-12-15T22:54:28.921Z,40.30
2022-12-15T22:57:01.800Z,35.67
2022-12-15T22:59:35.779Z,41.07
2022-12-15T23:02:04.603Z,35.27
2022-12-15T23:04:33.780Z,38.83
2022-12-15T23:07:04.627Z,37.70
2022-12-15T23:09:33.073Z,39.50
2022-12-15T23:12:01.773Z,43.67
2022-12-15T23:14:43.921Z,44.90
2022-12-15T23:17:12.848Z,42.30
2022-12-15T23:19:44.960Z,51.00
2022-12-15T23:22:13.422Z,40.83
2022-12-15T23:24:41.870Z,47.60
2022-12-15T23:27:13.130Z,48.77
2022-12-15T23:29:41.413Z,52.23
2022-12-15T23:32:09.718Z,46.77
2022-12-15T23:34:37.986Z,60.80
2022-12-15T23:37:06.342Z,46.47
2022-12-15T23:39:34.666Z,47.63
2022-12-15T23:42:02.967Z,48.23
2022-12-15T23:44:32.888Z,44.73
2022-12-15T23:47:01.232Z,52.90
2022-12-15T23:49:29.540Z,53.07
2022-12-15T23:51:58.074Z,60.20
2022-12-15T23:54:27.258Z,43.57
2022-12-15T23:56:55.563Z,39.87
2022-12-15T23:59:23.857Z,53.00
